createdAt,value
2023-07-24T00:00:16.790Z,4.714355
2023-07-24T00:05:16.806Z,4.596081
2023-07-24T00:10:15.844Z,4.466777
2023-07-24T00:15:16.129Z,4.342023
2023-07-24T00:20:16.669Z,4.211805
2023-07-24T00:25:16.465Z,4.074611
2023-07-24T00:30:16.491Z,3.937604
2023-07-24T00:35:16.122Z,3.799341
2023-07-24T00:40:16.698Z,3.664050
2023-07-24T00:45:16.330Z,3.527784
2023-07-24T00:50:15.917Z,3.394045
2023-07-24T00:55:16.987Z,3.256116
2023-07-24T01:00:15.910Z,3.120385
2023-07-24T01:05:17.141Z,2.985906
2023-07-24T01:10:16.153Z,2.850873
2023-07-24T01:15:16.006Z,2.718115
2023-07-24T01:20:15.878Z,2.588040
2023-07-24T01:25:16.699Z,2.459170
2023-07-24T01:30:16.247Z,2.330571
2023-07-24T01:35:15.660Z,2.199683
2023-07-24T01:40:16.714Z,2.068168
2023-07-24T01:45:15.694Z,1.944693
2023-07-24T01:50:16.254Z,1.822042
2023-07-24T01:55:16.043Z,1.696503
2023-07-24T02:00:15.963Z,1.576232
2023-07-24T02:05:15.807Z,1.457164
2023-07-24T02:10:15.903Z,1.345597
2023-07-24T02:15:16.126Z,1.234248
2023-07-24T02:20:16.243Z,1.130641
2023-07-24T02:25:15.728Z,1.032600
2023-07-24T02:30:15.973Z,0.937238
2023-07-24T02:35:16.171Z,0.847593
2023-07-24T02:40:16.469Z,0.759972
2023-07-24T02:45:16.073Z,0.676309
2023-07-24T02:50:15.728Z,0.605690
2023-07-24T02:55:15.680Z,0.536579
2023-07-24T03:00:15.748Z,0.474846
2023-07-24T03:05:15.590Z,0.414908
2023-07-24T03:10:15.967Z,0.362981
2023-07-24T03:15:15.784Z,0.314343
2023-07-24T03:20:16.238Z,0.263664
2023-07-24T03:25:16.499Z,0.205624
2023-07-24T03:30:15.972Z,0.186010
2023-07-24T03:35:16.138Z,0.156465
2023-07-24T03:40:16.829Z,0.132017
2023-07-24T03:45:15.911Z,0.108234
2023-07-24T03:50:15.780Z,0.086862
2023-07-24T03:55:16.593Z,0.068544
2023-07-24T04:00:16.209Z,0.057141
2023-07-24T04:05:15.942Z,0.052134
2023-07-24T04:10:15.943Z,0.048575
2023-07-24T04:15:15.891Z,0.044312
2023-07-24T04:20:15.848Z,0.041600
2023-07-24T04:25:15.866Z,0.039123
2023-07-24T04:30:15.743Z,0.039005
2023-07-24T04:35:17.061Z,0.039404
2023-07-24T04:40:17.161Z,0.039745
2023-07-24T04:45:16.048Z,0.038863
2023-07-24T04:50:15.860Z,0.038361
2023-07-24T04:55:16.658Z,0.038882
2023-07-24T05:00:16.925Z,0.036700
2023-07-24T05:05:16.099Z,0.037265
2023-07-24T05:10:16.561Z,0.037185
2023-07-24T05:15:16.273Z,0.037799
2023-07-24T05:20:16.328Z,0.036438
2023-07-24T05:25:16.185Z,0.037824
2023-07-24T05:30:16.219Z,0.037352
2023-07-24T05:35:16.062Z,0.037296
2023-07-24T05:40:15.770Z,0.036958
2023-07-24T05:45:15.947Z,0.038186
2023-07-24T05:50:15.661Z,0.039522
2023-07-24T05:55:16.247Z,0.037433
2023-07-24T06:00:15.607Z,0.037604
2023-07-24T06:05:16.694Z,0.038129
2023-07-24T06:10:15.889Z,0.038791
2023-07-24T06:15:15.889Z,0.038319
2023-07-24T06:20:15.607Z,0.039172
2023-07-24T06:25:17.006Z,0.039741
2023-07-24T06:30:16.689Z,0.039109
2023-07-24T06:35:16.334Z,0.038436
2023-07-24T06:40:15.846Z,0.038682
2023-07-24T06:45:16.529Z,0.038440
2023-07-24T06:50:16.943Z,0.038965
2023-07-24T06:55:16.519Z,0.039358
2023-07-24T07:00:15.704Z,0.038583
2023-07-24T07:05:15.802Z,0.037320
2023-07-24T07:10:16.196Z,0.037495
2023-07-24T07:15:15.737Z,0.037875
2023-07-24T07:20:16.647Z,0.037762
2023-07-24T07:25:16.044Z,0.038383
2023-07-24T07:30:16.413Z,0.038871
2023-07-24T07:35:16.484Z,0.038189
2023-07-24T07:40:16.278Z,0.037611
2023-07-24T07:45:15.893Z,0.038052
2023-07-24T07:50:16.370Z,0.038289
2023-07-24T07:55:15.895Z,0.037964
2023-07-24T08:00:16.583Z,0.038267
2023-07-24T08:05:20.922Z,0.037625
2023-07-24T08:10:16.817Z,0.036970
2023-07-24T08:15:16.396Z,0.038297
2023-07-24T08:20:16.854Z,0.038256
2023-07-24T08:25:16.599Z,0.038942
2023-07-24T08:30:15.844Z,0.037988
2023-07-24T08:35:16.117Z,0.037084
2023-07-24T08:40:16.212Z,0.036878
2023-07-24T08:45:16.266Z,0.037875
2023-07-24T08:50:16.350Z,0.037735
2023-07-24T08:55:15.955Z,0.036610
2023-07-24T09:00:16.539Z,0.037544
2023-07-24T09:05:16.237Z,0.036546
2023-07-24T09:10:15.722Z,0.036162
2023-07-24T09:15:16.099Z,0.038982
2023-07-24T09:20:15.902Z,0.039978
2023-07-24T09:25:15.887Z,0.038637
2023-07-24T09:30:16.380Z,0.037422
2023-07-24T09:35:16.226Z,0.038655
2023-07-24T09:40:15.853Z,0.038367
2023-07-24T09:45:16.006Z,0.038230
2023-07-24T09:50:16.207Z,0.038041
2023-07-24T09:55:16.140Z,0.038426
2023-07-24T10:00:16.175Z,0.039485
2023-07-24T10:05:16.208Z,0.038600
2023-07-24T10:10:15.818Z,0.038918
2023-07-24T10:15:15.813Z,0.039179
2023-07-24T10:20:15.971Z,0.039116
2023-07-24T10:25:15.861Z,0.039501
2023-07-24T10:30:34.812Z,0.039444
2023-07-24T10:35:15.896Z,0.038304
2023-07-24T10:40:15.891Z,0.039490
2023-07-24T10:45:16.183Z,0.036565
2023-07-24T10:50:15.710Z,0.038267
2023-07-24T10:55:16.384Z,0.038341
2023-07-24T11:00:15.841Z,0.038256
2023-07-24T11:05:16.504Z,0.037383
2023-07-24T11:10:19.232Z,0.037621
2023-07-24T11:15:15.998Z,0.037850
2023-07-24T11:20:15.921Z,0.038141
2023-07-24T11:25:15.742Z,0.038175
2023-07-24T11:30:15.897Z,0.038122
2023-07-24T11:35:16.240Z,0.039096
2023-07-24T11:40:16.467Z,0.039130
2023-07-24T11:45:16.677Z,0.039584
2023-07-24T11:50:15.810Z,0.038460
2023-07-24T11:55:16.277Z,0.039711
2023-07-24T12:00:15.782Z,0.037864
2023-07-24T12:05:16.023Z,0.040324
2023-07-24T12:10:15.998Z,0.039465
2023-07-24T12:15:16.864Z,0.041710
2023-07-24T12:20:15.742Z,0.042133
2023-07-24T12:25:17.234Z,0.047254
2023-07-24T12:30:15.787Z,0.054807
2023-07-24T12:35:17.486Z,0.066052
2023-07-24T12:40:16.214Z,0.083992
2023-07-24T12:45:15.905Z,0.097004
2023-07-24T12:50:16.465Z,0.119611
2023-07-24T12:55:16.214Z,0.137256
2023-07-24T13:00:15.765Z,0.166027
2023-07-24T13:05:17.497Z,0.214588
2023-07-24T13:10:16.637Z,0.254408
2023-07-24T13:15:15.797Z,0.284789
2023-07-24T13:20:16.509Z,0.339777
2023-07-24T13:25:15.676Z,0.354729
2023-07-24T13:30:16.259Z,0.357003
2023-07-24T13:35:15.964Z,0.269314
2023-07-24T13:40:15.799Z,0.248367
2023-07-24T13:45:16.891Z,0.244936
2023-07-24T13:50:16.534Z,0.278694
2023-07-24T13:55:16.604Z,0.356951
2023-07-24T14:00:15.863Z,0.319088
2023-07-24T14:05:17.667Z,0.301678
2023-07-24T14:10:16.517Z,0.350907
2023-07-24T14:15:16.613Z,0.362463
2023-07-24T14:20:16.093Z,0.393024
2023-07-24T14:25:16.336Z,0.450599
2023-07-24T14:30:16.067Z,0.389117
2023-07-24T14:35:15.857Z,0.303800
2023-07-24T14:40:15.713Z,0.340658
2023-07-24T14:45:15.854Z,0.420082
2023-07-24T14:50:16.025Z,0.658771
2023-07-24T14:55:15.805Z,0.943067
2023-07-24T15:00:15.894Z,0.889175
2023-07-24T15:05:16.502Z,0.561754
2023-07-24T15:10:16.207Z,0.408487
2023-07-24T15:15:16.436Z,0.432873
2023-07-24T15:20:16.443Z,0.594036
2023-07-24T15:25:15.741Z,0.699478
2023-07-24T15:30:15.951Z,0.676366
2023-07-24T15:35:15.862Z,0.603747
2023-07-24T15:40:17.082Z,0.695226
2023-07-24T15:45:16.078Z,0.796421
2023-07-24T15:50:16.302Z,0.952878
2023-07-24T15:55:15.736Z,0.955129
2023-07-24T16:00:17.151Z,1.317875
2023-07-24T16:05:16.441Z,1.594250
2023-07-24T16:10:15.771Z,1.397189
2023-07-24T16:15:16.200Z,1.231862
2023-07-24T16:20:16.451Z,1.566503
2023-07-24T16:25:16.648Z,1.827396
2023-07-24T16:30:16.280Z,1.471234
2023-07-24T16:35:16.267Z,1.152024
2023-07-24T16:40:15.702Z,1.178288
2023-07-24T16:45:29.048Z,1.378856
2023-07-24T16:50:16.166Z,1.363466
2023-07-24T16:55:15.964Z,1.079043
2023-07-24T17:00:15.798Z,0.696911
2023-07-24T17:05:16.134Z,0.629499
2023-07-24T17:10:16.605Z,0.758073
2023-07-24T17:15:15.882Z,0.834044
2023-07-24T17:20:16.154Z,0.768663
2023-07-24T17:25:16.917Z,0.895198
2023-07-24T17:30:16.753Z,1.080238
2023-07-24T17:35:15.905Z,1.087396
2023-07-24T17:40:16.814Z,1.125996
2023-07-24T17:45:16.278Z,1.159401
2023-07-24T17:50:15.796Z,1.145238
2023-07-24T17:55:15.888Z,1.199627
2023-07-24T18:00:15.956Z,1.020326
2023-07-24T18:05:15.731Z,0.948592
2023-07-24T18:10:16.596Z,0.697268
2023-07-24T18:15:15.706Z,0.728545
2023-07-24T18:20:18.014Z,0.927817
2023-07-24T18:25:16.532Z,0.816951
2023-07-24T18:30:16.333Z,1.194330
2023-07-24T18:35:16.095Z,1.375726
2023-07-24T18:40:15.796Z,1.310327
2023-07-24T18:45:15.982Z,1.522035
2023-07-24T18:50:16.016Z,1.619345
2023-07-24T18:55:16.089Z,1.403888
2023-07-24T19:00:15.956Z,1.982606
2023-07-24T19:05:16.026Z,2.211483
2023-07-24T19:10:15.783Z,2.215620
2023-07-24T19:15:16.105Z,2.890172
2023-07-24T19:20:16.289Z,4.017023
2023-07-24T19:25:15.985Z,4.996699
2023-07-24T19:30:16.117Z,4.130716
2023-07-24T19:35:15.888Z,3.404694
2023-07-24T19:40:15.971Z,2.965473
2023-07-24T19:45:16.490Z,2.611199
2023-07-24T19:50:16.370Z,2.136708
2023-07-24T19:55:16.238Z,2.007002
2023-07-24T20:00:16.156Z,2.439957
2023-07-24T20:05:16.271Z,2.996359
2023-07-24T20:10:15.751Z,2.761447
2023-07-24T20:15:16.121Z,3.323975
2023-07-24T20:20:15.783Z,2.638591
2023-07-24T20:25:15.868Z,2.104621
2023-07-24T20:30:15.862Z,2.313143
2023-07-24T20:35:15.784Z,2.169441
2023-07-24T20:40:16.001Z,2.646382
2023-07-24T20:45:15.954Z,2.439289
2023-07-24T20:50:16.155Z,2.416766
2023-07-24T20:55:16.979Z,2.122978
2023-07-24T21:00:16.077Z,2.326103
2023-07-24T21:05:16.298Z,2.038953
2023-07-24T21:10:16.808Z,2.321239
2023-07-24T21:15:16.504Z,2.364894
2023-07-24T21:20:16.809Z,1.956410
2023-07-24T21:25:16.332Z,2.992031
2023-07-24T21:30:15.931Z,3.540013
2023-07-24T21:35:15.831Z,3.845190
2023-07-24T21:40:16.403Z,3.762858
2023-07-24T21:45:16.391Z,3.573434
2023-07-24T21:50:16.157Z,3.676863
2023-07-24T21:55:16.116Z,3.601110
2023-07-24T22:00:16.423Z,5.144603
2023-07-24T22:05:16.417Z,6.637176
2023-07-24T22:10:15.853Z,5.318440
2023-07-24T22:15:16.681Z,4.581573
2023-07-24T22:20:26.862Z,5.574771
2023-07-24T22:25:15.780Z,2.501793
2023-07-24T22:30:16.951Z,2.849667
2023-07-24T22:35:15.883Z,4.609594
2023-07-24T22:40:16.400Z,5.945344
2023-07-24T22:45:16.183Z,3.130643
2023-07-24T22:50:15.993Z,2.731585
2023-07-24T22:55:15.866Z,2.534146
2023-07-24T23:00:16.036Z,2.075787
2023-07-24T23:05:16.142Z,2.710142
2023-07-24T23:10:15.861Z,2.666008
2023-07-24T23:15:16.043Z,1.594297
2023-07-24T23:20:15.877Z,1.596999
2023-07-24T23:25:16.217Z,1.859760
2023-07-24T23:30:16.338Z,1.394409
2023-07-24T23:35:15.897Z,1.847740
2023-07-24T23:40:16.248Z,2.285726
2023-07-24T23:45:16.233Z,1.454179
2023-07-24T23:50:16.088Z,1.188998
2023-07-24T23:55:16.267Z,1.113147
